^^
Meteo Knjazevac Station Historical Data
Daily Summary for May 29, 2022 Units:  Metric    English   Both
Daily Weekly Monthly Yearly Custom
  High: Low: Average:
Temperature: 15.8 °C 13 °C 13.7 °C
Dew Point: 13.9 °C 12.1 °C 12.7 °C
Humidity: 95% 89% 94%
Wind Speed: 9.7km/h 1.6km/h 5.1km/h
Wind Gust: 16.1km/h - -
Wind- - SW
Pressure: 1016.5 hPa 1013.8 hPa -
Precipitation: 0.25 mm    
Historical Graphs
 
 
Tabular Data for May 29, 2022
Time Temperature Dew Point Pressure Wind Wind Speed Wind Gust Humidity Rainfall Rate (Hourly) solar Conditions
00:00 14.9 °C 13.9 °C 1016.1 hPa SW 8 km/h 12.9 km/h 94% 0 mm 0 W/m2
00:10 14.7 °C 13.6 °C 1016.5 hPa SW 9.7 km/h 16.1 km/h 93% 0 mm 0 W/m2
00:20 14.6 °C 13.5 °C 1016.1 hPa SW 3.2 km/h 12.9 km/h 93% 0 mm 0 W/m2
00:30 14.5 °C 13.6 °C 1016.1 hPa SW 3.2 km/h 8 km/h 94% 0 mm 0 W/m2
00:40 14.4 °C 13.4 °C 1016.1 hPa SSW 4.8 km/h 14.5 km/h 94% 0 mm 0 W/m2
00:50 14.2 °C 13.2 °C 1016.1 hPa SW 1.6 km/h 9.7 km/h 94% 0 mm 0 W/m2
01:00 14.1 °C 13.2 °C 1015.8 hPa West 3.2 km/h 6.4 km/h 94% 0 mm 0 W/m2
01:10 14 °C 13.2 °C 1016.1 hPa SSW 8 km/h 9.7 km/h 95% 0 mm 0 W/m2
01:20 13.9 °C 13.1 °C 1015.8 hPa SW 3.2 km/h 8 km/h 95% 0 mm 0 W/m2
01:30 13.9 °C 13.1 °C 1015.5 hPa SSW 3.2 km/h 6.4 km/h 95% 0 mm 0 W/m2
01:40 13.9 °C 13.1 °C 1015.5 hPa SW 3.2 km/h 8 km/h 95% 0 mm 0 W/m2
01:50 13.9 °C 13.1 °C 1015.8 hPa SW 4.8 km/h 8 km/h 95% 0 mm 0 W/m2
02:00 13.9 °C 13.1 °C 1015.8 hPa SSW 3.2 km/h 8 km/h 95% 0 mm 0 W/m2
02:10 13.8 °C 13 °C 1015.5 hPa WSW 1.6 km/h 6.4 km/h 95% 0 mm 0 W/m2
02:20 13.8 °C 13 °C 1015.1 hPa WNW 3.2 km/h 6.4 km/h 95% 0 mm 0 W/m2
02:30 13.7 °C 12.9 °C 1015.1 hPa WNW 4.8 km/h 8 km/h 95% 0 mm 0 W/m2
02:40 13.7 °C 12.9 °C 1015.1 hPa West 3.2 km/h 9.7 km/h 95% 0 mm 0 W/m2
02:50 13.6 °C 12.8 °C 1014.8 hPa WSW 3.2 km/h 8 km/h 95% 0 mm 0 W/m2
03:00 13.6 °C 12.8 °C 1015.1 hPa SW 8 km/h 11.3 km/h 95% 0 mm 0 W/m2
03:10 13.6 °C 12.8 °C 1014.8 hPa WSW 4.8 km/h 11.3 km/h 95% 0 mm 0 W/m2
03:20 13.6 °C 12.8 °C 1014.8 hPa WSW 4.8 km/h 11.3 km/h 95% 0 mm 0 W/m2
03:30 13.5 °C 12.7 °C 1014.8 hPa WSW 4.8 km/h 9.7 km/h 95% 0 mm 0 W/m2
03:40 13.4 °C 12.7 °C 1014.8 hPa SW 4.8 km/h 11.3 km/h 95% 0 mm 0 W/m2
03:50 13.4 °C 12.6 °C 1014.8 hPa SW 8 km/h 11.3 km/h 95% 0 mm 0 W/m2
04:00 13.3 °C 12.6 °C 1014.4 hPa SW 8 km/h 12.9 km/h 95% 0 mm 0 W/m2
04:10 13.3 °C 12.5 °C 1014.4 hPa SW 8 km/h 12.9 km/h 95% 0 mm 0 W/m2
04:20 13.2 °C 12.4 °C 1014.4 hPa SW 4.8 km/h 14.5 km/h 95% 0 mm 0 W/m2
04:30 13.2 °C 12.4 °C 1014.4 hPa SSW 3.2 km/h 8 km/h 95% 0 mm 0 W/m2
04:40 13.2 °C 12.4 °C 1014.1 hPa SSW 1.6 km/h 6.4 km/h 95% 0 mm 0 W/m2
04:50 13.2 °C 12.4 °C 1014.1 hPa SSW 1.6 km/h 6.4 km/h 95% 0 mm 0 W/m2
05:00 13.2 °C 12.4 °C 1014.1 hPa SW 3.2 km/h 8 km/h 95% 0 mm 1 W/m2
05:10 13.2 °C 12.4 °C 1014.1 hPa WSW 3.2 km/h 8 km/h 95% 0 mm 5 W/m2
05:20 13.3 °C 12.5 °C 1014.1 hPa WSW 3.2 km/h 6.4 km/h 95% 0 mm 8 W/m2
05:30 13.3 °C 12.5 °C 1014.1 hPa WSW 4.8 km/h 9.7 km/h 95% 0 mm 11 W/m2
05:40 13.3 °C 12.5 °C 1014.1 hPa SW 8 km/h 11.3 km/h 95% 0 mm 9 W/m2
05:50 13.2 °C 12.4 °C 1014.1 hPa SW 9.7 km/h 11.3 km/h 95% 0 mm 12 W/m2
06:00 13.1 °C 12.3 °C 1014.1 hPa SW 4.8 km/h 12.9 km/h 95% 0 mm 14 W/m2
06:10 13 °C 12.2 °C 1014.1 hPa SW 8 km/h 14.5 km/h 95% 0 mm 20 W/m2
06:20 13 °C 12.2 °C 1014.1 hPa SW 3.2 km/h 11.3 km/h 95% 0 mm 31 W/m2
06:30 13 °C 12.2 °C 1014.1 hPa SW 4.8 km/h 11.3 km/h 95% 0 mm 38 W/m2
06:40 13 °C 12.2 °C 1014.1 hPa SW 4.8 km/h 9.7 km/h 95% 0 mm 39 W/m2
06:50 13 °C 12.2 °C 1013.8 hPa SW 3.2 km/h 8 km/h 95% 0 mm 35 W/m2
07:00 13.1 °C 12.3 °C 1014.1 hPa SW 3.2 km/h 4.8 km/h 95% 0 mm 34 W/m2
07:10 13.2 °C 12.4 °C 1014.1 hPa SW 8 km/h 9.7 km/h 95% 0 mm 69 W/m2
07:20 13.2 °C 12.3 °C 1014.1 hPa WSW 8 km/h 11.3 km/h 94% 0 mm 95 W/m2
07:30 13.2 °C 12.2 °C 1014.1 hPa SW 4.8 km/h 11.3 km/h 94% 0 mm 74 W/m2
07:40 13.2 °C 12.2 °C 1014.1 hPa SW 8 km/h 11.3 km/h 94% 0 mm 101 W/m2
07:50 13.3 °C 12.2 °C 1014.4 hPa SW 4.8 km/h 11.3 km/h 93% 0 mm 84 W/m2
08:00 13.4 °C 12.3 °C 1014.1 hPa SW 9.7 km/h 14.5 km/h 93% 0 mm 118 W/m2
08:10 13.4 °C 12.3 °C 1014.1 hPa SW 8 km/h 11.3 km/h 93% 0 mm 135 W/m2
08:20 13.5 °C 12.2 °C 1014.1 hPa SW 8 km/h 11.3 km/h 92% 0 mm 126 W/m2
08:30 13.5 °C 12.1 °C 1013.8 hPa SW 4.8 km/h 11.3 km/h 91% 0 mm 132 W/m2
08:40 13.6 °C 12.5 °C 1013.8 hPa SW 8 km/h 9.7 km/h 93% 0 mm 204 W/m2
08:50 13.7 °C 12.3 °C 1014.1 hPa SW 8 km/h 11.3 km/h 91% 0 mm 115 W/m2
09:00 13.8 °C 12.3 °C 1013.8 hPa SW 4.8 km/h 11.3 km/h 91% 0 mm 136 W/m2
09:10 13.8 °C 12.3 °C 1014.1 hPa SW 4.8 km/h 11.3 km/h 91% 0 mm 127 W/m2
09:20 13.8 °C 12.3 °C 1013.8 hPa SW 4.8 km/h 11.3 km/h 91% 0 mm 334 W/m2
09:30 14.1 °C 12.5 °C 1013.8 hPa SW 4.8 km/h 9.7 km/h 90% 0 mm 208 W/m2
09:40 14.2 °C 12.6 °C 1014.1 hPa SW 4.8 km/h 9.7 km/h 90% 0 mm 294 W/m2
09:50 14.6 °C 13.2 °C 1013.8 hPa SW 4.8 km/h 11.3 km/h 91% 0 mm 402 W/m2
10:00 14.9 °C 13.3 °C 1013.8 hPa SW 4.8 km/h 11.3 km/h 90% 0.25 mm 392 W/m2
10:10 15.3 °C 13.5 °C 1013.8 hPa SW 3.2 km/h 11.3 km/h 89% 0 mm 357 W/m2
10:20 15.6 °C 13.8 °C 1013.8 hPa SW 4.8 km/h 9.7 km/h 89% 0 mm 303 W/m2
10:30 15.8 °C 13.9 °C 1013.8 hPa WSW 4.8 km/h 8 km/h 89% 0 mm 305 W/m2
Knjazevac, Serbia
Compliments of Weather Underground - 2 mb